createdAt,value
2023-01-17T00:02:31.706Z,5.25
2023-01-17T00:05:19.727Z,5.24
2023-01-17T00:08:07.869Z,5.23
2023-01-17T00:10:41.055Z,5.24
2023-01-17T00:13:10.106Z,5.22
2023-01-17T00:15:40.448Z,5.23
2023-01-17T00:18:09.731Z,5.24
2023-01-17T00:20:57.947Z,5.26
2023-01-17T00:24:02.459Z,5.28
2023-01-17T00:26:32.685Z,5.25
2023-01-17T00:29:02.176Z,5.27
2023-01-17T00:31:31.451Z,5.28
2023-01-17T00:33:59.746Z,5.24
2023-01-17T00:36:28.278Z,5.19
2023-01-17T00:38:57.586Z,5.19
2023-01-17T00:41:29.336Z,5.19
2023-01-17T00:44:17.553Z,5.21
2023-01-17T00:47:05.575Z,5.21
2023-01-17T00:49:53.076Z,5.21
2023-01-17T00:52:41.035Z,5.22
2023-01-17T00:55:29.803Z,5.22
2023-01-17T00:58:17.631Z,5.21
2023-01-17T04:00:40.182Z,5.13
2023-01-17T04:03:09.489Z,5.11
2023-01-17T04:05:38.766Z,5.12
2023-01-17T04:08:07.981Z,5.13
2023-01-17T04:10:36.340Z,5.12
2023-01-17T04:13:05.277Z,5.11
2023-01-17T04:15:34.906Z,5.12
2023-01-17T04:18:05.903Z,5.14
2023-01-17T04:20:38.798Z,5.16
2023-01-17T04:23:08.470Z,5.19
2023-01-17T04:25:38.465Z,5.19
2023-01-17T04:28:07.596Z,5.22
2023-01-17T04:30:36.865Z,5.23
2023-01-17T04:33:06.269Z,5.18
2023-01-17T04:35:35.195Z,5.16
2023-01-17T04:38:04.527Z,5.15
2023-01-17T04:40:32.897Z,5.12
2023-01-17T04:43:01.938Z,5.13
2023-01-17T04:45:31.048Z,5.12
2023-01-17T04:48:06.899Z,5.12
2023-01-17T04:50:35.793Z,5.07
2023-01-17T04:53:05.615Z,5.09
2023-01-17T04:55:34.487Z,5.13
2023-01-17T04:58:03.773Z,5.16
2023-01-17T05:00:32.852Z,5.22
2023-01-17T05:03:02.145Z,5.29
2023-01-17T05:05:31.847Z,5.31
2023-01-17T05:08:01.128Z,5.32
2023-01-17T05:10:30.329Z,5.27
2023-01-17T05:13:00.322Z,5.27
2023-01-17T05:15:31.490Z,5.30
2023-01-17T05:18:00.865Z,5.30
2023-01-17T05:20:30.467Z,5.33
2023-01-17T05:22:59.590Z,5.40
2023-01-17T05:25:31.308Z,5.47
2023-01-17T05:28:00.947Z,5.48
2023-01-17T05:30:31.731Z,5.49
2023-01-17T05:33:00.911Z,5.54
2023-01-17T05:35:35.940Z,5.57
2023-01-17T05:38:04.832Z,5.59
2023-01-17T05:40:34.346Z,5.60
2023-01-17T05:43:04.238Z,5.62
2023-01-17T05:45:34.273Z,5.65
2023-01-17T05:48:04.509Z,5.68
2023-01-17T05:50:36.445Z,5.68
2023-01-17T05:53:08.830Z,5.72
2023-01-17T05:55:39.332Z,5.78
2023-01-17T05:58:13.822Z,5.81
2023-01-17T06:00:43.440Z,5.83
2023-01-17T06:03:13.446Z,5.84
2023-01-17T06:05:43.311Z,5.86
2023-01-17T06:08:12.637Z,5.84
2023-01-17T06:10:42.000Z,5.85
2023-01-17T06:13:14.639Z,5.87
2023-01-17T06:15:43.434Z,5.87
2023-01-17T06:18:15.641Z,5.89
2023-01-17T06:20:45.341Z,5.90
2023-01-17T06:23:15.428Z,5.92
2023-01-17T06:25:46.152Z,5.97
2023-01-17T06:28:18.078Z,5.97
2023-01-17T06:30:46.995Z,5.94
2023-01-17T06:33:16.569Z,5.96
2023-01-17T06:35:53.492Z,6.01
2023-01-17T06:38:22.594Z,6.02
2023-01-17T06:40:52.287Z,6.03
2023-01-17T06:43:21.407Z,6.06
2023-01-17T06:45:51.446Z,6.05
2023-01-17T06:48:20.889Z,6.04
2023-01-17T06:50:50.311Z,6.05
2023-01-17T06:53:19.947Z,6.06
2023-01-17T06:55:48.436Z,6.05
2023-01-17T06:58:17.009Z,6.05
2023-01-17T07:00:46.369Z,6.08
2023-01-17T07:03:33.435Z,6.10
2023-01-17T07:06:04.125Z,6.08
2023-01-17T07:08:36.380Z,6.09
2023-01-17T07:11:09.009Z,6.10
2023-01-17T07:13:39.280Z,6.13
2023-01-17T07:16:09.522Z,6.17
2023-01-17T07:18:37.989Z,6.15
2023-01-17T07:21:13.485Z,6.17
2023-01-17T07:23:42.641Z,6.20
2023-01-17T07:26:11.485Z,6.23
2023-01-17T07:28:40.630Z,6.25
2023-01-17T07:31:09.497Z,6.28
2023-01-17T07:33:37.934Z,6.27
2023-01-17T07:36:08.282Z,6.25
2023-01-17T07:38:37.057Z,6.27
2023-01-17T07:41:05.664Z,6.28
2023-01-17T07:43:36.166Z,6.28
2023-01-17T07:46:07.093Z,6.29
2023-01-17T07:48:35.629Z,6.29
2023-01-17T07:51:04.112Z,6.32
2023-01-17T07:53:33.831Z,6.33
2023-01-17T07:56:05.074Z,6.33
2023-01-17T07:58:34.531Z,6.32
2023-01-17T08:01:10.796Z,6.34
2023-01-17T08:03:40.427Z,6.37
2023-01-17T08:06:24.449Z,6.37
2023-01-17T08:08:58.086Z,6.38
2023-01-17T08:11:27.608Z,6.35
2023-01-17T08:14:00.655Z,6.30
2023-01-17T08:16:30.140Z,6.30
2023-01-17T08:18:58.559Z,6.32
2023-01-17T08:21:27.529Z,6.36
2023-01-17T08:23:57.131Z,6.42
2023-01-17T08:26:25.780Z,6.43
2023-01-17T08:29:00.781Z,6.43
2023-01-17T08:31:32.460Z,6.43
2023-01-17T08:34:02.224Z,6.43
2023-01-17T08:36:32.563Z,6.43
2023-01-17T08:39:01.645Z,6.46
2023-01-17T08:41:30.319Z,6.51
2023-01-17T08:43:59.702Z,6.53
2023-01-17T08:46:30.910Z,6.56
2023-01-17T08:49:03.665Z,6.56
2023-01-17T08:51:35.859Z,6.54
2023-01-17T08:54:09.955Z,6.55
2023-01-17T08:56:42.138Z,6.58
2023-01-17T08:59:12.139Z,6.57
2023-01-17T09:01:43.263Z,6.61
2023-01-17T09:04:14.063Z,6.67
2023-01-17T09:06:46.032Z,6.67
2023-01-17T09:09:18.737Z,6.67
2023-01-17T09:11:48.069Z,6.68
2023-01-17T09:14:17.398Z,6.62
2023-01-17T09:16:46.930Z,6.62
2023-01-17T09:19:16.276Z,6.62
2023-01-17T09:21:46.056Z,6.62
2023-01-17T09:24:14.503Z,6.64
2023-01-17T09:26:43.665Z,6.63
2023-01-17T09:29:14.469Z,6.66
2023-01-17T09:31:43.219Z,6.68
2023-01-17T09:34:12.191Z,6.69
2023-01-17T09:36:41.702Z,6.69
2023-01-17T09:39:11.736Z,6.72
2023-01-17T09:42:16.410Z,6.76
2023-01-17T09:44:44.930Z,6.82
2023-01-17T09:47:27.539Z,6.81
2023-01-17T09:50:00.308Z,6.82
2023-01-17T09:52:32.768Z,6.86
2023-01-17T09:55:02.366Z,6.89
2023-01-17T09:57:35.742Z,6.91
2023-01-17T10:00:10.039Z,6.93
2023-01-17T10:02:48.938Z,6.92
2023-01-17T10:05:24.086Z,6.89
2023-01-17T10:08:10.976Z,6.88
2023-01-17T10:10:46.189Z,6.88
2023-01-17T10:13:30.248Z,6.88
2023-01-17T10:16:18.006Z,6.83
2023-01-17T10:18:59.239Z,6.80
2023-01-17T10:21:35.313Z,6.81
2023-01-17T10:24:31.869Z,6.83
2023-01-17T10:27:03.042Z,6.85
2023-01-17T10:29:35.383Z,6.87
2023-01-17T10:32:04.733Z,6.91
2023-01-17T10:34:52.714Z,6.94
2023-01-17T10:37:36.250Z,6.95
2023-01-17T10:40:35.330Z,6.94
2023-01-17T10:43:15.448Z,6.96
2023-01-17T10:45:54.171Z,6.97
2023-01-17T10:48:34.703Z,7.04
2023-01-17T10:51:50.639Z,7.07
2023-01-17T10:54:36.734Z,7.13
2023-01-17T10:57:05.927Z,7.18
2023-01-17T10:59:37.755Z,7.25
2023-01-17T11:02:20.726Z,7.29
2023-01-17T11:04:54.794Z,7.32
2023-01-17T11:07:26.430Z,7.31
2023-01-17T11:09:57.949Z,7.32
2023-01-17T11:12:40.980Z,7.35
2023-01-17T11:15:09.768Z,7.37
2023-01-17T11:17:53.366Z,7.38
2023-01-17T11:20:30.496Z,7.34
2023-01-17T11:23:15.462Z,7.31
2023-01-17T11:25:58.723Z,7.31
2023-01-17T11:28:31.331Z,7.37
2023-01-17T11:31:04.803Z,7.36
2023-01-17T11:33:46.270Z,7.41
2023-01-17T11:36:33.695Z,7.43
2023-01-17T11:39:07.673Z,7.46
2023-01-17T11:41:42.731Z,7.46
2023-01-17T11:44:23.341Z,7.45
2023-01-17T11:47:14.214Z,7.46
2023-01-17T11:49:46.111Z,7.48
2023-01-17T11:52:32.980Z,7.45
2023-01-17T11:55:02.055Z,7.44
2023-01-17T11:57:36.916Z,7.39
2023-01-17T12:00:38.084Z,7.34
2023-01-17T12:03:45.577Z,7.35
2023-01-17T12:06:56.513Z,7.35
2023-01-17T12:09:50.308Z,7.36
2023-01-17T12:12:49.244Z,7.37
2023-01-17T12:15:30.690Z,7.40
2023-01-17T12:18:47.302Z,7.43
2023-01-17T12:21:29.987Z,7.48
2023-01-17T12:24:23.893Z,7.52
2023-01-17T12:27:23.168Z,7.54
2023-01-17T12:30:16.527Z,7.59
2023-01-17T12:33:13.700Z,7.59
2023-01-17T12:35:51.036Z,7.63
2023-01-17T12:38:47.655Z,7.67
2023-01-17T12:41:34.052Z,7.67
2023-01-17T12:44:03.253Z,7.69
2023-01-17T12:46:44.460Z,7.69
2023-01-17T12:49:30.486Z,7.64
2023-01-17T12:52:11.686Z,7.64
2023-01-17T12:54:45.631Z,7.66
2023-01-17T12:57:24.084Z,7.69
2023-01-17T13:00:20.261Z,7.70
2023-01-17T13:03:04.739Z,7.74
2023-01-17T13:05:41.985Z,7.81
2023-01-17T13:08:26.580Z,7.81
2023-01-17T13:11:18.731Z,7.78
2023-01-17T13:13:51.920Z,7.77
2023-01-17T13:16:42.173Z,7.79
2023-01-17T13:19:40.720Z,7.79
2023-01-17T13:22:19.938Z,7.82
2023-01-17T13:24:56.035Z,7.82
2023-01-17T13:27:52.958Z,7.81
2023-01-17T13:30:24.940Z,7.82
2023-01-17T13:33:34.177Z,7.82
2023-01-17T13:36:30.459Z,7.77
2023-01-17T13:39:36.388Z,7.74
2023-01-17T13:42:49.445Z,7.73
2023-01-17T13:45:21.861Z,7.70
2023-01-17T13:47:51.411Z,7.70
2023-01-17T13:50:38.834Z,7.71
2023-01-17T13:53:29.516Z,7.70
2023-01-17T13:56:16.764Z,7.72
2023-01-17T13:58:50.956Z,7.73
2023-01-17T14:01:23.627Z,7.74
2023-01-17T14:03:53.319Z,7.76
2023-01-17T14:06:41.971Z,7.76
2023-01-17T14:09:34.630Z,7.75
2023-01-17T14:12:03.166Z,7.76
2023-01-17T14:14:41.265Z,7.76
2023-01-17T14:17:28.666Z,7.77
2023-01-17T14:20:09.917Z,7.77
2023-01-17T14:22:42.191Z,7.76
2023-01-17T14:25:20.714Z,7.70
2023-01-17T14:27:56.322Z,7.69
2023-01-17T14:30:27.507Z,7.70
2023-01-17T14:32:59.707Z,7.72
2023-01-17T14:35:32.292Z,7.72
2023-01-17T14:38:03.545Z,7.73
2023-01-17T14:40:35.277Z,7.77
2023-01-17T14:43:16.407Z,7.76
2023-01-17T14:45:45.217Z,7.76
2023-01-17T14:48:22.413Z,7.76
2023-01-17T14:50:54.916Z,7.78
2023-01-17T14:53:28.913Z,7.80
2023-01-17T14:56:18.813Z,7.81
2023-01-17T14:58:47.674Z,7.78
2023-01-17T15:01:19.661Z,7.73
2023-01-17T15:03:52.039Z,7.69
2023-01-17T15:06:37.271Z,7.67
2023-01-17T15:09:17.321Z,7.66
2023-01-17T15:11:48.374Z,7.64
2023-01-17T15:14:37.572Z,7.62
2023-01-17T15:17:28.953Z,7.63
2023-01-17T15:20:01.959Z,7.62
2023-01-17T15:22:31.108Z,7.60
2023-01-17T15:25:00.286Z,7.59
2023-01-17T15:27:29.020Z,7.58
2023-01-17T15:30:02.258Z,7.58
2023-01-17T15:32:33.738Z,7.59
2023-01-17T15:35:03.233Z,7.59
2023-01-17T15:37:40.059Z,7.58
2023-01-17T15:40:20.685Z,7.53
2023-01-17T15:42:53.545Z,7.46
2023-01-17T15:45:28.350Z,7.36
2023-01-17T15:47:59.532Z,7.32
2023-01-17T15:50:38.767Z,7.28
2023-01-17T15:53:29.705Z,7.22
2023-01-17T15:55:58.413Z,7.15
2023-01-17T15:58:30.748Z,7.12
2023-01-17T16:00:59.578Z,7.09
2023-01-17T16:03:31.506Z,7.04
2023-01-17T16:06:03.233Z,6.96
2023-01-17T16:08:32.148Z,6.88
2023-01-17T16:11:03.670Z,6.79
2023-01-17T16:13:39.354Z,6.73
2023-01-17T16:16:20.757Z,6.66
2023-01-17T16:18:58.033Z,6.62
2023-01-17T16:21:29.639Z,6.56
2023-01-17T16:24:00.017Z,6.48
2023-01-17T16:26:29.566Z,6.46
2023-01-17T16:28:58.972Z,6.47
2023-01-17T16:31:27.404Z,6.46
2023-01-17T16:33:56.741Z,6.43
2023-01-17T16:36:25.688Z,6.42
2023-01-17T16:38:54.229Z,6.42
2023-01-17T16:41:23.014Z,6.38
2023-01-17T16:44:01.533Z,6.35
2023-01-17T16:46:30.208Z,6.34
2023-01-17T16:49:02.345Z,6.35
2023-01-17T16:51:31.613Z,6.38
2023-01-17T16:54:01.177Z,6.39
2023-01-17T16:56:29.581Z,6.42
2023-01-17T16:58:58.173Z,6.45
2023-01-17T17:01:26.476Z,6.48
2023-01-17T17:03:55.377Z,6.46
2023-01-17T17:06:24.224Z,6.44
2023-01-17T17:08:52.852Z,6.42
2023-01-17T17:11:24.211Z,6.41
2023-01-17T17:13:53.054Z,6.42
2023-01-17T17:16:33.279Z,6.44
2023-01-17T17:19:05.085Z,6.45
2023-01-17T17:21:35.301Z,6.46
2023-01-17T17:24:04.671Z,6.45
2023-01-17T17:26:35.703Z,6.47
2023-01-17T17:29:05.589Z,6.50
2023-01-17T17:31:33.930Z,6.50
2023-01-17T17:34:05.497Z,6.50
2023-01-17T17:36:35.507Z,6.51
2023-01-17T17:39:06.100Z,6.51
2023-01-17T17:41:39.432Z,6.51
2023-01-17T17:44:07.773Z,6.49
2023-01-17T17:46:37.909Z,6.44
2023-01-17T17:49:07.283Z,6.39
2023-01-17T17:51:38.451Z,6.32
2023-01-17T17:54:11.711Z,6.27
2023-01-17T17:56:40.544Z,6.22
2023-01-17T17:59:12.756Z,6.20
2023-01-17T18:01:42.023Z,6.18
2023-01-17T18:04:12.540Z,6.17
2023-01-17T18:06:41.602Z,6.16
2023-01-17T18:09:12.892Z,6.16
2023-01-17T18:11:43.204Z,6.18
2023-01-17T18:14:14.583Z,6.20
2023-01-17T18:16:48.858Z,6.22
2023-01-17T18:19:23.098Z,6.23
2023-01-17T18:21:52.355Z,6.23
2023-01-17T18:24:23.479Z,6.24
2023-01-17T18:26:57.279Z,6.26
2023-01-17T18:29:26.994Z,6.30
2023-01-17T18:31:56.385Z,6.31
2023-01-17T18:34:29.388Z,6.30
2023-01-17T18:36:59.579Z,6.30
2023-01-17T18:39:30.356Z,6.26
2023-01-17T18:41:59.997Z,6.24
2023-01-17T18:44:29.960Z,6.19
2023-01-17T18:47:02.197Z,6.17
2023-01-17T18:49:32.733Z,6.11
2023-01-17T18:52:01.475Z,6.09
2023-01-17T18:54:30.388Z,6.09
2023-01-17T18:56:59.437Z,6.10
2023-01-17T18:59:28.617Z,6.13
2023-01-17T19:01:58.957Z,6.15
2023-01-17T19:04:28.769Z,6.14
2023-01-17T19:06:57.400Z,6.14
2023-01-17T19:09:26.462Z,6.16
2023-01-17T19:11:56.081Z,6.14
2023-01-17T19:14:25.472Z,6.11
2023-01-17T19:16:54.960Z,6.08
2023-01-17T19:19:23.508Z,6.04
2023-01-17T19:21:52.917Z,5.99
2023-01-17T19:24:21.453Z,5.94
2023-01-17T19:26:53.658Z,5.89
2023-01-17T19:29:23.094Z,5.81
2023-01-17T19:31:52.980Z,5.73
2023-01-17T19:34:22.386Z,5.66
2023-01-17T19:36:53.525Z,5.60
2023-01-17T19:39:25.651Z,5.53
2023-01-17T19:41:53.992Z,5.48
2023-01-17T19:44:23.180Z,5.45
2023-01-17T19:46:51.698Z,5.41
2023-01-17T19:49:25.308Z,5.40
2023-01-17T19:51:54.465Z,5.37
2023-01-17T19:54:23.448Z,5.30
2023-01-17T19:56:51.675Z,5.27
2023-01-17T19:59:20.258Z,5.22
2023-01-17T20:01:49.715Z,5.13
2023-01-17T20:04:18.943Z,5.04
2023-01-17T20:06:47.429Z,4.97
2023-01-17T20:09:15.583Z,4.87
2023-01-17T20:11:45.822Z,4.81
2023-01-17T20:14:15.457Z,4.76
2023-01-17T20:16:48.925Z,4.75
2023-01-17T20:19:21.128Z,4.72
2023-01-17T20:21:50.237Z,4.68
2023-01-17T20:24:18.698Z,4.66
2023-01-17T20:26:47.273Z,4.65
2023-01-17T20:29:18.184Z,4.63
2023-01-17T20:31:52.724Z,4.62
2023-01-17T20:34:25.865Z,4.60
2023-01-17T20:36:57.902Z,4.55
2023-01-17T20:39:26.725Z,4.51
2023-01-17T20:41:55.138Z,4.48
2023-01-17T20:44:24.173Z,4.44
2023-01-17T20:46:52.797Z,4.40
2023-01-17T20:49:22.142Z,4.39
2023-01-17T20:51:54.210Z,4.38
2023-01-17T20:54:23.802Z,4.36
2023-01-17T20:56:53.014Z,4.34
2023-01-17T20:59:22.548Z,4.29
2023-01-17T21:01:52.262Z,4.24
2023-01-17T21:04:26.749Z,4.22
2023-01-17T21:06:56.648Z,4.19
2023-01-17T21:09:25.109Z,4.19
2023-01-17T21:11:54.844Z,4.11
2023-01-17T21:14:23.753Z,4.07
2023-01-17T21:16:53.084Z,4.01
2023-01-17T21:19:25.116Z,3.99
2023-01-17T21:21:54.107Z,3.96
2023-01-17T21:24:23.135Z,3.97
2023-01-17T21:26:52.747Z,3.96
2023-01-17T21:29:21.358Z,3.94
2023-01-17T21:31:50.157Z,3.93
2023-01-17T21:34:18.765Z,3.92
2023-01-17T21:36:47.106Z,3.89
2023-01-17T21:39:20.642Z,3.86
2023-01-17T21:41:51.125Z,3.84
2023-01-17T21:44:46.734Z,3.84
2023-01-17T21:47:44.945Z,3.84
2023-01-17T21:50:25.021Z,3.81
2023-01-17T21:53:04.099Z,3.79
2023-01-17T21:55:51.323Z,3.77
2023-01-17T21:58:39.813Z,3.76
2023-01-17T22:01:21.684Z,3.73
2023-01-17T22:03:54.170Z,3.68
2023-01-17T22:06:26.176Z,3.63
2023-01-17T22:09:14.555Z,3.59
2023-01-17T22:11:55.150Z,3.53
2023-01-17T22:14:24.455Z,3.47
2023-01-17T22:16:54.129Z,3.42
2023-01-17T22:19:22.926Z,3.40
2023-01-17T22:21:51.595Z,3.37
2023-01-17T22:24:20.204Z,3.35
2023-01-17T22:26:48.625Z,3.35
2023-01-17T22:29:19.063Z,3.32
2023-01-17T22:31:48.039Z,3.32
2023-01-17T22:34:16.930Z,3.33
2023-01-17T22:36:46.251Z,3.33
2023-01-17T22:39:15.391Z,3.31
2023-01-17T22:41:44.144Z,3.28
2023-01-17T22:44:13.397Z,3.26
2023-01-17T22:46:43.201Z,3.25
2023-01-17T22:49:16.348Z,3.22
2023-01-17T22:51:45.118Z,3.19
2023-01-17T22:54:13.792Z,3.16
2023-01-17T22:56:42.838Z,3.12
2023-01-17T22:59:12.539Z,3.07
2023-01-17T23:01:41.521Z,3.02
2023-01-17T23:04:14.059Z,2.99
2023-01-17T23:06:43.506Z,2.97
2023-01-17T23:09:14.896Z,2.94
2023-01-17T23:11:47.684Z,2.92
2023-01-17T23:14:17.763Z,2.91
2023-01-17T23:17:19.247Z,2.88
2023-01-17T23:19:51.318Z,2.86
2023-01-17T23:22:22.702Z,2.82
2023-01-17T23:25:14.503Z,2.78
2023-01-17T23:28:04.401Z,2.72
2023-01-17T23:31:08.959Z,2.68
2023-01-17T23:33:56.750Z,2.66
2023-01-17T23:36:25.362Z,2.62
2023-01-17T23:38:53.757Z,2.58
2023-01-17T23:41:41.299Z,2.51
2023-01-17T23:44:09.606Z,2.43
2023-01-17T23:46:38.407Z,2.38
2023-01-17T23:49:07.987Z,2.35
2023-01-17T23:51:39.396Z,2.33
2023-01-17T23:54:16.457Z,2.34
2023-01-17T23:56:45.238Z,2.32
2023-01-17T23:59:15.426Z,2.35
